createdAt,value
2022-08-08T00:02:03.749Z,21.30
2022-08-08T00:05:00.835Z,21.30
2022-08-08T00:07:51.300Z,21.30
2022-08-08T00:10:52.340Z,21.30
2022-08-08T00:14:16.606Z,21.30
2022-08-08T00:16:22.406Z,21.30
2022-08-08T00:19:02.962Z,21.20
2022-08-08T00:21:45.903Z,21.10
2022-08-08T00:24:29.787Z,21.00
2022-08-08T00:27:02.043Z,20.90
2022-08-08T00:29:44.905Z,20.90
2022-08-08T00:32:38.218Z,20.90
2022-08-08T00:35:26.737Z,20.90
2022-08-08T00:38:31.189Z,20.90
2022-08-08T00:41:54.842Z,20.90
2022-08-08T00:45:29.379Z,20.90
2022-08-08T00:48:30.067Z,20.90
2022-08-08T00:51:24.738Z,20.80
2022-08-08T00:54:19.930Z,20.80
2022-08-08T00:57:08.351Z,20.80
2022-08-08T00:59:48.674Z,20.80
2022-08-08T01:04:01.527Z,20.80
2022-08-08T01:05:59.328Z,20.70
2022-08-08T01:08:54.542Z,20.60
2022-08-08T01:11:43.608Z,20.60
2022-08-08T01:14:57.404Z,20.50
2022-08-08T01:17:44.848Z,20.60
2022-08-08T01:20:31.599Z,20.60
2022-08-08T01:24:05.460Z,20.50
2022-08-08T01:26:19.202Z,20.50
2022-08-08T01:29:02.366Z,20.50
2022-08-08T01:32:14.927Z,20.50
2022-08-08T01:34:29.036Z,20.50
2022-08-08T01:37:57.774Z,20.50
2022-08-08T01:40:36.921Z,20.40
2022-08-08T01:43:24.632Z,20.40
2022-08-08T01:46:30.003Z,20.40
2022-08-08T01:49:22.867Z,20.40
2022-08-08T01:52:53.387Z,20.40
2022-08-08T01:55:25.601Z,20.40
2022-08-08T01:58:15.889Z,20.30
2022-08-08T02:01:08.895Z,20.40
2022-08-08T02:03:55.043Z,20.30
2022-08-08T02:06:51.989Z,20.30
2022-08-08T02:10:02.020Z,20.30
2022-08-08T02:12:21.481Z,20.30
2022-08-08T02:14:58.921Z,20.30
2022-08-08T02:17:42.554Z,20.30
2022-08-08T02:21:00.912Z,20.30
2022-08-08T02:23:35.051Z,20.30
2022-08-08T02:26:08.219Z,20.30
2022-08-08T02:29:22.247Z,20.30
2022-08-08T02:32:15.768Z,20.30
2022-08-08T02:35:18.302Z,20.30
2022-08-08T02:38:09.224Z,20.20
2022-08-08T02:40:42.133Z,20.20
2022-08-08T02:44:38.612Z,20.20
2022-08-08T02:46:34.764Z,20.20
2022-08-08T02:49:24.323Z,20.20
2022-08-08T02:52:35.147Z,20.20
2022-08-08T02:54:55.564Z,20.20
2022-08-08T02:57:45.631Z,20.10
2022-08-08T03:00:43.140Z,20.10
2022-08-08T03:05:05.201Z,20.10
2022-08-08T03:07:07.499Z,20.10
2022-08-08T03:09:59.434Z,20.10
2022-08-08T03:13:01.789Z,20.10
2022-08-08T03:16:00.169Z,20.10
2022-08-08T03:18:52.305Z,20.10
2022-08-08T03:21:19.042Z,20.00
2022-08-08T03:23:57.565Z,20.00
2022-08-08T03:26:41.964Z,20.00
2022-08-08T03:29:18.822Z,20.00
2022-08-08T03:32:07.368Z,20.00
2022-08-08T03:34:39.896Z,20.00
2022-08-08T03:37:59.113Z,20.00
2022-08-08T03:40:05.512Z,20.00
2022-08-08T03:42:32.819Z,20.00
2022-08-08T03:44:59.732Z,20.00
2022-08-08T03:47:39.446Z,20.00
2022-08-08T03:50:24.475Z,20.00
2022-08-08T03:52:51.908Z,19.90
2022-08-08T03:55:56.054Z,19.90
2022-08-08T03:58:36.127Z,19.90
2022-08-08T04:01:23.166Z,19.90
2022-08-08T04:03:59.958Z,19.80
2022-08-08T04:06:30.486Z,19.80
2022-08-08T04:09:10.856Z,19.80
2022-08-08T04:11:57.952Z,19.80
2022-08-08T04:14:34.749Z,19.80
2022-08-08T04:17:04.434Z,19.80
2022-08-08T04:19:36.780Z,19.80
2022-08-08T04:22:04.468Z,19.80
2022-08-08T04:24:31.909Z,19.80
2022-08-08T04:27:01.614Z,19.80
2022-08-08T04:29:36.608Z,19.80
2022-08-08T04:32:08.213Z,19.80
2022-08-08T04:34:49.612Z,19.80
2022-08-08T04:37:31.784Z,19.80
2022-08-08T04:40:05.018Z,19.70
2022-08-08T04:42:34.901Z,19.70
2022-08-08T04:45:05.219Z,19.70
2022-08-08T04:47:32.391Z,19.60
2022-08-08T04:50:06.018Z,19.70
2022-08-08T04:52:33.858Z,19.70
2022-08-08T04:55:01.520Z,19.60
2022-08-08T04:57:28.914Z,19.60
2022-08-08T04:59:59.441Z,19.60
2022-08-08T05:02:30.454Z,19.60
2022-08-08T05:04:59.154Z,19.60
2022-08-08T05:07:37.998Z,19.60
2022-08-08T05:10:12.277Z,19.60
2022-08-08T05:12:43.026Z,19.50
2022-08-08T05:16:48.323Z,19.60
2022-08-08T05:18:14.066Z,19.60
2022-08-08T05:20:49.797Z,19.60
2022-08-08T05:23:19.731Z,19.60
2022-08-08T05:25:49.663Z,19.60
2022-08-08T05:28:16.635Z,19.60
2022-08-08T05:31:08.708Z,19.70
2022-08-08T05:33:50.833Z,19.70
2022-08-08T05:36:25.394Z,19.70
2022-08-08T05:38:53.539Z,19.70
2022-08-08T05:41:25.215Z,19.80
2022-08-08T05:44:04.608Z,19.70
2022-08-08T05:46:32.915Z,19.70
2022-08-08T05:49:00.784Z,19.80
2022-08-08T05:51:47.930Z,19.80
2022-08-08T05:54:28.071Z,19.80
2022-08-08T05:57:04.738Z,19.90
2022-08-08T05:59:57.696Z,19.90
2022-08-08T06:02:48.158Z,20.00
2022-08-08T06:05:35.003Z,20.00
2022-08-08T06:08:14.509Z,20.00
2022-08-08T06:10:52.972Z,20.00
2022-08-08T06:13:22.954Z,20.10
2022-08-08T06:15:53.827Z,20.10
2022-08-08T06:18:25.408Z,20.10
2022-08-08T06:20:56.459Z,20.20
2022-08-08T06:23:48.904Z,20.20
2022-08-08T06:26:43.878Z,20.30
2022-08-08T06:29:19.751Z,20.30
2022-08-08T06:32:10.228Z,20.30
2022-08-08T06:34:56.258Z,20.40
2022-08-08T06:37:37.365Z,20.50
2022-08-08T06:40:07.166Z,20.50
2022-08-08T06:42:40.161Z,20.50
2022-08-08T06:45:08.631Z,20.50
2022-08-08T06:47:52.705Z,20.60
2022-08-08T06:50:31.579Z,20.70
2022-08-08T06:53:13.674Z,20.80
2022-08-08T06:55:46.861Z,20.80
2022-08-08T06:58:14.443Z,20.90
2022-08-08T07:00:46.424Z,20.90
2022-08-08T07:03:51.896Z,21.00
2022-08-08T07:06:38.031Z,21.10
2022-08-08T07:09:15.431Z,21.20
2022-08-08T07:11:51.503Z,21.20
2022-08-08T07:14:25.167Z,21.30
2022-08-08T07:17:14.292Z,21.30
2022-08-08T07:19:55.974Z,21.40
2022-08-08T07:22:58.899Z,21.50
2022-08-08T07:25:29.393Z,21.50
2022-08-08T07:28:19.611Z,21.50
2022-08-08T07:30:47.146Z,21.60
2022-08-08T07:33:17.677Z,21.60
2022-08-08T07:35:47.381Z,21.70
2022-08-08T07:38:20.909Z,21.80
2022-08-08T07:40:58.930Z,21.80
2022-08-08T07:43:35.505Z,21.80
2022-08-08T07:46:23.136Z,21.90
2022-08-08T07:48:51.549Z,21.90
2022-08-08T07:51:23.005Z,22.00
2022-08-08T07:54:02.882Z,22.00
2022-08-08T07:56:42.672Z,22.10
2022-08-08T07:59:14.841Z,22.20
2022-08-08T08:02:35.953Z,22.20
2022-08-08T08:04:44.614Z,22.20
2022-08-08T08:07:17.176Z,22.30
2022-08-08T08:09:44.363Z,22.30
2022-08-08T08:12:31.703Z,22.40
2022-08-08T08:15:07.217Z,22.40
2022-08-08T08:17:47.671Z,22.50
2022-08-08T08:20:18.842Z,22.50
2022-08-08T08:22:47.288Z,22.60
2022-08-08T08:25:19.450Z,22.70
2022-08-08T08:28:02.959Z,22.70
2022-08-08T08:30:29.909Z,22.80
2022-08-08T08:32:56.711Z,22.90
2022-08-08T08:35:30.065Z,22.90
2022-08-08T08:38:17.424Z,22.90
2022-08-08T08:40:51.169Z,23.00
2022-08-08T08:43:19.613Z,23.10
2022-08-08T08:45:48.797Z,23.10
2022-08-08T08:48:20.010Z,23.10
2022-08-08T08:50:51.940Z,23.10
2022-08-08T08:53:27.978Z,23.20
2022-08-08T08:56:08.380Z,23.20
2022-08-08T08:58:46.747Z,23.20
2022-08-08T09:01:20.223Z,23.30
2022-08-08T09:03:51.571Z,23.30
2022-08-08T09:06:34.319Z,23.30
2022-08-08T09:09:26.280Z,23.30
2022-08-08T09:12:07.805Z,23.30
2022-08-08T09:14:43.113Z,23.30
2022-08-08T09:17:18.473Z,23.40
2022-08-08T09:21:58.979Z,23.40
2022-08-08T09:22:35.717Z,23.40
2022-08-08T09:25:04.350Z,23.50
2022-08-08T09:27:55.589Z,23.40
2022-08-08T09:30:20.042Z,23.40
2022-08-08T09:33:12.407Z,23.50
2022-08-08T09:35:50.121Z,23.50
2022-08-08T09:38:52.392Z,23.50
2022-08-08T09:41:54.950Z,23.50
2022-08-08T09:44:44.031Z,23.50
2022-08-08T09:47:25.923Z,23.60
2022-08-08T09:50:10.052Z,23.70
2022-08-08T09:52:58.240Z,23.70
2022-08-08T09:56:03.160Z,23.80
2022-08-08T09:58:27.684Z,23.80
2022-08-08T10:01:14.376Z,23.80
2022-08-08T10:03:46.120Z,23.90
2022-08-08T10:06:29.456Z,23.90
2022-08-08T10:08:56.752Z,24.00
2022-08-08T10:12:26.277Z,24.00
2022-08-08T10:14:28.443Z,24.00
2022-08-08T10:16:59.546Z,24.00
2022-08-08T10:19:57.254Z,24.00
2022-08-08T10:22:26.399Z,24.00
2022-08-08T10:24:55.395Z,23.90
2022-08-08T10:27:28.418Z,23.80
2022-08-08T10:30:01.721Z,23.70
2022-08-08T10:32:52.055Z,23.80
2022-08-08T10:36:08.163Z,23.80
2022-08-08T10:38:14.286Z,23.90
2022-08-08T10:40:42.860Z,24.00
2022-08-08T10:43:11.160Z,24.00
2022-08-08T10:45:55.527Z,24.10
2022-08-08T10:48:57.850Z,24.10
2022-08-08T10:51:25.906Z,24.20
2022-08-08T10:53:58.300Z,24.20
2022-08-08T10:56:27.111Z,24.30
2022-08-08T10:59:03.692Z,24.30
2022-08-08T11:01:33.666Z,24.40
2022-08-08T11:04:02.465Z,24.40
2022-08-08T11:06:30.359Z,24.50
2022-08-08T11:09:00.975Z,24.50
2022-08-08T11:11:32.894Z,24.60
2022-08-08T11:14:16.045Z,24.60
2022-08-08T11:16:46.680Z,24.60
2022-08-08T11:19:15.353Z,24.60
2022-08-08T11:21:56.327Z,24.50
2022-08-08T11:24:25.257Z,24.50
2022-08-08T11:26:56.572Z,24.50
2022-08-08T11:29:41.925Z,24.40
2022-08-08T11:32:14.171Z,24.40
2022-08-08T11:35:05.702Z,24.50
2022-08-08T11:38:39.526Z,24.50
2022-08-08T11:40:22.401Z,24.50
2022-08-08T11:42:54.363Z,24.50
2022-08-08T11:45:21.866Z,24.50
2022-08-08T11:48:04.772Z,24.60
2022-08-08T11:50:33.703Z,24.60
2022-08-08T11:53:05.742Z,24.60
2022-08-08T11:55:36.199Z,24.70
2022-08-08T11:58:14.699Z,24.70
2022-08-08T12:00:56.377Z,24.80
2022-08-08T12:03:24.227Z,24.80
2022-08-08T12:05:52.555Z,24.90
2022-08-08T12:08:32.386Z,24.90
2022-08-08T12:11:03.361Z,24.90
2022-08-08T12:13:38.231Z,24.90
2022-08-08T12:16:18.925Z,25.00
2022-08-08T12:18:54.840Z,25.00
2022-08-08T12:21:25.742Z,25.00
2022-08-08T12:24:06.311Z,25.10
2022-08-08T12:26:42.144Z,25.10
2022-08-08T12:29:21.414Z,25.10
2022-08-08T12:31:59.516Z,25.20
2022-08-08T12:34:52.865Z,25.10
2022-08-08T12:37:41.247Z,25.10
2022-08-08T12:40:22.633Z,25.10
2022-08-08T12:42:51.744Z,25.00
2022-08-08T12:45:53.600Z,25.00
2022-08-08T12:48:18.181Z,25.00
2022-08-08T12:50:57.297Z,25.00
2022-08-08T12:53:37.775Z,25.10
2022-08-08T12:56:18.854Z,25.10
2022-08-08T12:58:51.095Z,25.10
2022-08-08T13:01:29.562Z,25.20
2022-08-08T13:04:12.278Z,25.20
2022-08-08T13:07:03.185Z,25.20
2022-08-08T13:09:43.230Z,25.20
2022-08-08T13:12:32.617Z,25.30
2022-08-08T13:15:04.880Z,25.30
2022-08-08T13:18:08.224Z,25.30
2022-08-08T13:20:20.999Z,25.40
2022-08-08T13:22:48.276Z,25.40
2022-08-08T13:25:16.118Z,25.50
2022-08-08T13:27:43.493Z,25.50
2022-08-08T13:30:14.985Z,25.60
2022-08-08T13:32:47.963Z,25.60
2022-08-08T13:35:25.143Z,25.60
2022-08-08T13:38:05.904Z,25.60
2022-08-08T13:40:35.109Z,25.70
2022-08-08T13:43:03.699Z,25.80
2022-08-08T13:45:31.399Z,25.80
2022-08-08T13:47:58.429Z,25.80
2022-08-08T13:50:35.746Z,25.80
2022-08-08T13:53:24.587Z,25.90
2022-08-08T13:55:59.026Z,26.00
2022-08-08T13:58:29.167Z,26.10
2022-08-08T14:00:56.259Z,26.10
2022-08-08T14:03:52.152Z,26.20
2022-08-08T14:06:33.570Z,26.40
2022-08-08T14:09:00.679Z,26.40
2022-08-08T14:11:47.832Z,26.60
2022-08-08T14:14:20.715Z,26.60
2022-08-08T14:16:52.364Z,26.50
2022-08-08T14:19:29.393Z,26.50
2022-08-08T14:22:26.092Z,26.40
2022-08-08T14:24:52.751Z,26.30
2022-08-08T14:27:27.033Z,26.20
2022-08-08T14:29:56.795Z,26.10
2022-08-08T14:32:29.896Z,26.20
2022-08-08T14:35:07.281Z,26.30
2022-08-08T14:37:57.061Z,26.50
2022-08-08T14:40:25.539Z,26.60
2022-08-08T14:42:56.662Z,26.70
2022-08-08T14:45:33.208Z,26.70
2022-08-08T14:48:17.909Z,26.60
2022-08-08T14:51:03.991Z,26.40
2022-08-08T14:53:37.286Z,26.30
2022-08-08T14:56:21.358Z,26.20
2022-08-08T14:58:52.228Z,26.20
2022-08-08T15:01:27.939Z,26.10
2022-08-08T15:04:08.493Z,26.10
2022-08-08T15:06:35.808Z,26.10
2022-08-08T15:09:04.484Z,26.10
2022-08-08T15:11:34.567Z,26.10
2022-08-08T15:14:13.608Z,26.00
2022-08-08T15:16:42.646Z,26.00
2022-08-08T15:19:11.345Z,26.00
2022-08-08T15:21:42.634Z,25.90
2022-08-08T15:24:13.591Z,25.90
2022-08-08T15:26:41.740Z,25.80
2022-08-08T15:29:08.536Z,25.80
2022-08-08T15:32:17.833Z,25.80
2022-08-08T15:34:31.432Z,25.80
2022-08-08T15:37:02.339Z,25.80
2022-08-08T15:39:38.493Z,25.80
2022-08-08T15:42:13.471Z,25.80
2022-08-08T15:44:54.760Z,25.80
2022-08-08T15:47:22.610Z,25.70
2022-08-08T15:49:49.887Z,25.70
2022-08-08T15:52:17.673Z,25.70
2022-08-08T15:54:47.642Z,25.70
2022-08-08T15:57:18.286Z,25.70
2022-08-08T16:00:25.480Z,25.70
2022-08-08T16:02:32.322Z,25.70
2022-08-08T16:05:04.030Z,25.70
2022-08-08T16:07:51.203Z,25.70
2022-08-08T16:13:20.476Z,25.70
2022-08-08T16:13:32.276Z,25.60
2022-08-08T16:15:58.971Z,25.70
2022-08-08T16:18:30.224Z,25.60
2022-08-08T16:21:00.705Z,25.60
2022-08-08T16:23:32.402Z,25.60
2022-08-08T16:26:12.751Z,25.50
2022-08-08T16:28:41.569Z,25.50
2022-08-08T16:31:09.201Z,25.40
2022-08-08T16:33:39.412Z,25.50
2022-08-08T16:36:09.611Z,25.50
2022-08-08T16:38:40.771Z,25.40
2022-08-08T16:41:20.456Z,25.40
2022-08-08T16:43:51.102Z,25.40
2022-08-08T16:46:44.862Z,25.40
2022-08-08T16:49:07.891Z,25.40
2022-08-08T16:55:00.529Z,25.30
2022-08-08T16:55:02.810Z,25.40
2022-08-08T16:58:12.227Z,25.30
2022-08-08T17:00:06.300Z,25.30
2022-08-08T17:02:38.354Z,25.20
2022-08-08T17:05:06.370Z,25.20
2022-08-08T17:07:33.242Z,25.20
2022-08-08T17:10:04.609Z,25.20
2022-08-08T17:12:34.714Z,25.30
2022-08-08T17:15:20.421Z,25.40
2022-08-08T17:18:02.268Z,25.50
2022-08-08T17:20:31.530Z,25.80
2022-08-08T17:23:18.270Z,25.80
2022-08-08T17:25:52.401Z,25.80
2022-08-08T17:28:34.367Z,25.70
2022-08-08T17:31:43.662Z,25.60
2022-08-08T17:34:47.903Z,25.60
2022-08-08T17:37:02.819Z,25.60
2022-08-08T17:40:02.947Z,25.50
2022-08-08T17:42:13.396Z,25.40
2022-08-08T17:44:44.512Z,25.30
2022-08-08T17:47:16.250Z,25.30
2022-08-08T17:50:01.113Z,25.20
2022-08-08T17:52:30.709Z,25.20
2022-08-08T17:54:57.732Z,25.20
2022-08-08T17:57:25.049Z,25.10
2022-08-08T17:59:58.811Z,25.10
2022-08-08T18:02:29.748Z,25.00
2022-08-08T18:04:58.792Z,25.00
2022-08-08T18:08:15.473Z,25.00
2022-08-08T18:10:15.723Z,25.00
2022-08-08T18:12:46.090Z,24.90
2022-08-08T18:15:23.496Z,24.90
2022-08-08T18:18:05.387Z,24.90
2022-08-08T18:20:54.554Z,24.90
2022-08-08T18:23:22.146Z,24.90
2022-08-08T18:25:49.999Z,24.80
2022-08-08T18:28:23.377Z,24.80
2022-08-08T18:30:52.275Z,24.80
2022-08-08T18:33:36.961Z,24.80
2022-08-08T18:36:09.135Z,24.80
2022-08-08T18:38:46.389Z,24.70
2022-08-08T18:41:15.930Z,24.70
2022-08-08T18:43:43.504Z,24.60
2022-08-08T18:46:54.719Z,24.60
2022-08-08T18:48:57.928Z,24.60
2022-08-08T18:51:48.354Z,24.60
2022-08-08T18:54:22.763Z,24.60
2022-08-08T18:56:57.275Z,24.60
2022-08-08T18:59:24.354Z,24.50
2022-08-08T19:02:28.491Z,24.50
2022-08-08T19:04:42.463Z,24.50
2022-08-08T19:07:10.508Z,24.50
2022-08-08T19:09:48.996Z,24.50
2022-08-08T19:12:26.322Z,24.50
2022-08-08T19:14:53.567Z,24.40
2022-08-08T19:17:29.298Z,24.40
2022-08-08T19:20:07.974Z,24.40
2022-08-08T19:22:37.556Z,24.40
2022-08-08T19:25:19.300Z,24.40
2022-08-08T19:28:18.162Z,24.30
2022-08-08T19:30:51.522Z,24.30
2022-08-08T19:33:39.482Z,24.30
2022-08-08T19:36:18.339Z,24.30
2022-08-08T19:38:54.337Z,24.30
2022-08-08T19:41:21.640Z,24.30
2022-08-08T19:44:02.175Z,24.30
2022-08-08T19:46:46.858Z,24.30
2022-08-08T19:49:14.072Z,24.20
2022-08-08T19:51:43.255Z,24.20
2022-08-08T19:54:10.639Z,24.20
2022-08-08T19:56:40.831Z,24.20
2022-08-08T19:59:08.720Z,24.20
2022-08-08T20:02:02.194Z,24.20
2022-08-08T20:04:23.762Z,24.20
2022-08-08T20:06:50.992Z,24.20
2022-08-08T20:09:23.060Z,24.10
2022-08-08T20:11:50.248Z,24.20
2022-08-08T20:14:34.567Z,24.10
2022-08-08T20:17:03.455Z,24.10
2022-08-08T20:19:34.266Z,24.10
2022-08-08T20:22:20.550Z,24.10
2022-08-08T20:24:52.312Z,24.00
2022-08-08T20:27:21.079Z,24.00
2022-08-08T20:30:00.201Z,24.00
2022-08-08T20:32:28.403Z,24.00
2022-08-08T20:35:00.666Z,23.90
2022-08-08T20:37:53.242Z,23.90
2022-08-08T20:40:35.089Z,23.90
2022-08-08T20:43:16.320Z,23.90
2022-08-08T20:45:58.088Z,23.90
2022-08-08T20:48:30.496Z,23.80
2022-08-08T20:50:57.191Z,23.80
2022-08-08T20:54:00.214Z,23.80
2022-08-08T20:56:11.718Z,23.70
2022-08-08T20:58:40.684Z,23.70
2022-08-08T21:01:19.635Z,23.70
2022-08-08T21:03:59.859Z,23.70
2022-08-08T21:06:52.626Z,23.70
2022-08-08T21:09:16.087Z,23.60
2022-08-08T21:11:50.372Z,23.60
2022-08-08T21:14:19.079Z,23.60
2022-08-08T21:17:00.160Z,23.60
2022-08-08T21:19:26.906Z,23.50
2022-08-08T21:22:11.561Z,23.50
2022-08-08T21:24:39.596Z,23.50
2022-08-08T21:27:15.289Z,23.50
2022-08-08T21:30:05.336Z,23.40
2022-08-08T21:32:37.471Z,23.40
2022-08-08T21:36:17.150Z,23.40
2022-08-08T21:37:54.775Z,23.30
2022-08-08T21:40:31.314Z,23.20
2022-08-08T21:42:58.613Z,23.20
2022-08-08T21:48:01.705Z,23.20
2022-08-08T21:48:20.189Z,23.10
2022-08-08T21:50:49.782Z,23.10
2022-08-08T21:54:33.577Z,23.10
2022-08-08T21:56:26.539Z,23.00
2022-08-08T21:58:54.840Z,23.00
2022-08-08T22:01:39.324Z,23.00
2022-08-08T22:04:11.059Z,22.90
2022-08-08T22:06:39.577Z,22.90
2022-08-08T22:09:09.010Z,22.90
2022-08-08T22:12:02.419Z,22.90
2022-08-08T22:14:23.905Z,22.90
2022-08-08T22:16:53.973Z,22.90
2022-08-08T22:19:24.051Z,22.80
2022-08-08T22:21:51.556Z,22.80
2022-08-08T22:24:28.528Z,22.80
2022-08-08T22:27:02.700Z,22.80
2022-08-08T22:30:01.490Z,22.80
2022-08-08T22:32:19.030Z,22.80
2022-08-08T22:34:50.446Z,22.80
2022-08-08T22:37:48.854Z,22.80
2022-08-08T22:40:16.544Z,22.80
2022-08-08T22:42:45.586Z,22.80
2022-08-08T22:45:14.277Z,22.80
2022-08-08T22:47:46.992Z,22.80
2022-08-08T22:50:25.654Z,22.70
2022-08-08T22:54:19.472Z,22.70
2022-08-08T22:55:58.168Z,22.70
2022-08-08T22:58:32.823Z,22.70
2022-08-08T23:01:00.625Z,22.70
2022-08-08T23:03:52.677Z,22.70
2022-08-08T23:06:17.090Z,22.70
2022-08-08T23:08:54.785Z,22.60
2022-08-08T23:11:23.345Z,22.60
2022-08-08T23:14:11.626Z,22.60
2022-08-08T23:16:44.192Z,22.60
2022-08-08T23:19:15.296Z,22.50
2022-08-08T23:21:42.380Z,22.50
2022-08-08T23:24:09.296Z,22.50
2022-08-08T23:26:36.020Z,22.50
2022-08-08T23:29:04.535Z,22.40
2022-08-08T23:31:41.528Z,22.40
2022-08-08T23:34:16.377Z,22.40
2022-08-08T23:36:45.735Z,22.40
2022-08-08T23:39:12.929Z,22.30
2022-08-08T23:41:47.010Z,22.30
2022-08-08T23:44:18.664Z,22.30
2022-08-08T23:49:01.958Z,22.30
2022-08-08T23:49:33.115Z,22.30
2022-08-08T23:52:04.578Z,22.30
2022-08-08T23:54:42.046Z,22.20
2022-08-08T23:57:27.621Z,22.20
